Alda, Nebraska
Current Conditions -  °F | °C
As of 12:53 PM on Friday 24 Oct 2014 (Local Time) from KGRI Reporting Station
Clear Clear  
Wind Chill: 66°   Ceiling: Unl
Heat Index: 66°   Visibility: 10mi
Dew Point: 53°   Wind: 6mph
Humidity: 63%   Direction: 250°WSW
Pressure: 29.96"   Gusts: NA
Location:  40.87°N, 98.47°W
Report Text: KGRI 241753Z 25005KT 10SM CLR 19/12 A2996 RMK AO2 SLP139 T01890117 10189 20133 50003
Loading
Personal Weather Stations






























Interactive Weather Map
Tropical Storm Tracking
New forecast layout! Learn more

10-Day Weather Forecast

Advertisements
Track Severe Weather on mobile